sensor_id;sensor_type;location;lat;lon;timestamp;pressure;altitude;pressure_sealevel;temperature;humidity
9307;BME280;4691;47.612;7.610;2022-10-31T00:02:18;99886.81;;;11.73;100.00
9307;BME280;4691;47.612;7.610;2022-10-31T00:04:43;99884.41;;;11.68;100.00
9307;BME280;4691;47.612;7.610;2022-10-31T00:07:09;99882.72;;;11.67;100.00
9307;BME280;4691;47.612;7.610;2022-10-31T00:09:34;99893.63;;;11.64;100.00
9307;BME280;4691;47.612;7.610;2022-10-31T00:12:00;99902.44;;;11.66;100.00
9307;BME280;4691;47.612;7.610;2022-10-31T00:14:25;99892.78;;;11.64;100.00
9307;BME280;4691;47.612;7.610;2022-10-31T00:16:50;99894.69;;;11.62;100.00
9307;BME280;4691;47.612;7.610;2022-10-31T00:19:16;99888.50;;;11.61;100.00
9307;BME280;4691;47.612;7.610;2022-10-31T00:21:41;99909.25;;;11.58;100.00
9307;BME280;4691;47.612;7.610;2022-10-31T00:24:06;99914.88;;;11.67;100.00
9307;BME280;4691;47.612;7.610;2022-10-31T00:26:32;99916.78;;;11.65;100.00
9307;BME280;4691;47.612;7.610;2022-10-31T00:28:58;99896.31;;;11.64;100.00
9307;BME280;4691;47.612;7.610;2022-10-31T00:31:24;99901.25;;;11.70;100.00
9307;BME280;4691;47.612;7.610;2022-10-31T00:33:49;99892.09;;;11.60;100.00
9307;BME280;4691;47.612;7.610;2022-10-31T00:36:17;99886.53;;;11.63;100.00
9307;BME280;4691;47.612;7.610;2022-10-31T00:38:43;99890.59;;;11.56;100.00
9307;BME280;4691;47.612;7.610;2022-10-31T00:41:10;99896.91;;;11.55;100.00
9307;BME280;4691;47.612;7.610;2022-10-31T00:43:36;99897.66;;;11.57;100.00
9307;BME280;4691;47.612;7.610;2022-10-31T00:46:01;99888.56;;;11.60;100.00
9307;BME280;4691;47.612;7.610;2022-10-31T00:48:26;99854.81;;;11.57;100.00
9307;BME280;4691;47.612;7.610;2022-10-31T00:50:52;99862.06;;;11.55;100.00
9307;BME280;4691;47.612;7.610;2022-10-31T00:53:17;99861.63;;;11.48;100.00
9307;BME280;4691;47.612;7.610;2022-10-31T00:55:43;99858.84;;;11.50;100.00
9307;BME280;4691;47.612;7.610;2022-10-31T00:58:08;99844.81;;;11.46;100.00
9307;BME280;4691;47.612;7.610;2022-10-31T01:00:33;99847.75;;;11.56;100.00
9307;BME280;4691;47.612;7.610;2022-10-31T01:02:59;99850.59;;;11.53;100.00
9307;BME280;4691;47.612;7.610;2022-10-31T01:05:24;99838.31;;;11.63;100.00
9307;BME280;4691;47.612;7.610;2022-10-31T01:07:49;99838.09;;;11.53;100.00
9307;BME280;4691;47.612;7.610;2022-10-31T01:10:15;99826.69;;;11.50;100.00
9307;BME280;4691;47.612;7.610;2022-10-31T01:12:45;99840.00;;;11.51;100.00
9307;BME280;4691;47.612;7.610;2022-10-31T01:15:13;99824.53;;;11.42;100.00
9307;BME280;4691;47.612;7.610;2022-10-31T01:17:40;99833.13;;;11.47;100.00
9307;BME280;4691;47.612;7.610;2022-10-31T01:20:07;99830.34;;;11.49;100.00
9307;BME280;4691;47.612;7.610;2022-10-31T01:22:33;99817.25;;;11.44;100.00
9307;BME280;4691;47.612;7.610;2022-10-31T01:24:58;99807.03;;;11.37;100.00
9307;BME280;4691;47.612;7.610;2022-10-31T01:27:24;99824.09;;;11.36;100.00
9307;BME280;4691;47.612;7.610;2022-10-31T01:29:49;99823.41;;;11.32;100.00
9307;BME280;4691;47.612;7.610;2022-10-31T01:32:14;99822.75;;;11.28;100.00
9307;BME280;4691;47.612;7.610;2022-10-31T01:34:40;99826.00;;;11.33;100.00
9307;BME280;4691;47.612;7.610;2022-10-31T01:37:05;99820.44;;;11.37;100.00
9307;BME280;4691;47.612;7.610;2022-10-31T01:39:30;99813.16;;;11.39;100.00
9307;BME280;4691;47.612;7.610;2022-10-31T01:41:56;99800.13;;;11.47;100.00
9307;BME280;4691;47.612;7.610;2022-10-31T01:51:55;99803.50;;;11.36;100.00
9307;BME280;4691;47.612;7.610;2022-10-31T01:54:25;99813.38;;;11.36;100.00
9307;BME280;4691;47.612;7.610;2022-10-31T01:56:53;99808.19;;;11.32;100.00
9307;BME280;4691;47.612;7.610;2022-10-31T01:59:21;99806.69;;;11.28;100.00
9307;BME280;4691;47.612;7.610;2022-10-31T02:01:50;99804.97;;;11.27;100.00
9307;BME280;4691;47.612;7.610;2022-10-31T02:04:17;99808.69;;;11.25;100.00
9307;BME280;4691;47.612;7.610;2022-10-31T02:07:13;99798.75;;;11.27;100.00
9307;BME280;4691;47.612;7.610;2022-10-31T02:09:40;99798.47;;;11.17;100.00
9307;BME280;4691;47.612;7.610;2022-10-31T02:12:06;99802.22;;;11.15;100.00
9307;BME280;4691;47.612;7.610;2022-10-31T02:14:33;99804.81;;;11.16;100.00
9307;BME280;4691;47.612;7.610;2022-10-31T02:17:00;99810.94;;;11.18;100.00
9307;BME280;4691;47.612;7.610;2022-10-31T02:19:45;99803.25;;;11.26;100.00
9307;BME280;4691;47.612;7.610;2022-10-31T02:22:35;99793.69;;;11.22;100.00
9307;BME280;4691;47.612;7.610;2022-10-31T02:30:23;99777.13;;;11.30;100.00
9307;BME280;4691;47.612;7.610;2022-10-31T02:33:16;99779.91;;;11.28;100.00
9307;BME280;4691;47.612;7.610;2022-10-31T02:36:10;99773.59;;;11.29;100.00
9307;BME280;4691;47.612;7.610;2022-10-31T02:46:44;99767.44;;;11.42;100.00
9307;BME280;4691;47.612;7.610;2022-10-31T02:49:22;99772.56;;;11.45;100.00
9307;BME280;4691;47.612;7.610;2022-10-31T02:51:50;99773.75;;;11.41;100.00
9307;BME280;4691;47.612;7.610;2022-10-31T02:54:18;99772.66;;;11.30;100.00
9307;BME280;4691;47.612;7.610;2022-10-31T02:56:45;99782.38;;;11.31;100.00
9307;BME280;4691;47.612;7.610;2022-10-31T02:59:11;99784.22;;;11.31;100.00
9307;BME280;4691;47.612;7.610;2022-10-31T03:10:26;99769.09;;;11.30;100.00
9307;BME280;4691;47.612;7.610;2022-10-31T03:13:03;99769.00;;;11.31;100.00
9307;BME280;4691;47.612;7.610;2022-10-31T03:15:32;99765.03;;;11.37;100.00
9307;BME280;4691;47.612;7.610;2022-10-31T03:19:40;99775.50;;;11.27;100.00
9307;BME280;4691;47.612;7.610;2022-10-31T03:22:16;99756.75;;;11.27;100.00
9307;BME280;4691;47.612;7.610;2022-10-31T03:24:43;99755.06;;;11.26;100.00
9307;BME280;4691;47.612;7.610;2022-10-31T03:27:12;99745.97;;;11.29;100.00
9307;BME280;4691;47.612;7.610;2022-10-31T03:29:40;99752.88;;;11.19;100.00
9307;BME280;4691;47.612;7.610;2022-10-31T03:32:10;99750.13;;;11.20;100.00
9307;BME280;4691;47.612;7.610;2022-10-31T03:34:39;99750.13;;;11.20;100.00
9307;BME280;4691;47.612;7.610;2022-10-31T03:37:07;99750.66;;;11.25;100.00
9307;BME280;4691;47.612;7.610;2022-10-31T03:39:35;99749.69;;;11.26;100.00
9307;BME280;4691;47.612;7.610;2022-10-31T03:42:15;99758.69;;;11.25;100.00
9307;BME280;4691;47.612;7.610;2022-10-31T03:44:43;99749.91;;;11.23;100.00
9307;BME280;4691;47.612;7.610;2022-10-31T03:47:09;99747.03;;;11.26;100.00
9307;BME280;4691;47.612;7.610;2022-10-31T03:49:35;99753.72;;;11.19;100.00
9307;BME280;4691;47.612;7.610;2022-10-31T03:54:45;99754.72;;;11.18;100.00
9307;BME280;4691;47.612;7.610;2022-10-31T04:00:33;99749.38;;;11.04;100.00
9307;BME280;4691;47.612;7.610;2022-10-31T04:03:05;99750.69;;;11.11;100.00
9307;BME280;4691;47.612;7.610;2022-10-31T04:05:31;99746.81;;;11.02;100.00
9307;BME280;4691;47.612;7.610;2022-10-31T04:07:58;99742.75;;;11.09;100.00
9307;BME280;4691;47.612;7.610;2022-10-31T04:10:26;99743.44;;;11.13;100.00
9307;BME280;4691;47.612;7.610;2022-10-31T04:12:59;99734.34;;;11.16;100.00
9307;BME280;4691;47.612;7.610;2022-10-31T04:15:28;99726.09;;;11.19;100.00
9307;BME280;4691;47.612;7.610;2022-10-31T04:17:56;99722.28;;;11.23;100.00
9307;BME280;4691;47.612;7.610;2022-10-31T04:20:31;99722.06;;;11.26;100.00
9307;BME280;4691;47.612;7.610;2022-10-31T04:22:57;99730.97;;;11.26;100.00
9307;BME280;4691;47.612;7.610;2022-10-31T04:25:22;99725.31;;;11.31;100.00
9307;BME280;4691;47.612;7.610;2022-10-31T04:27:47;99721.88;;;11.29;100.00
9307;BME280;4691;47.612;7.610;2022-10-31T04:30:13;99729.59;;;11.33;100.00
9307;BME280;4691;47.612;7.610;2022-10-31T04:32:38;99735.50;;;11.39;100.00
9307;BME280;4691;47.612;7.610;2022-10-31T04:35:04;99737.72;;;11.32;100.00
9307;BME280;4691;47.612;7.610;2022-10-31T04:37:29;99746.59;;;11.32;100.00
9307;BME280;4691;47.612;7.610;2022-10-31T04:39:54;99745.88;;;11.30;100.00
9307;BME280;4691;47.612;7.610;2022-10-31T04:42:20;99745.00;;;11.30;100.00
9307;BME280;4691;47.612;7.610;2022-10-31T04:44:45;99750.66;;;11.25;100.00
9307;BME280;4691;47.612;7.610;2022-10-31T04:47:10;99752.59;;;11.23;100.00
9307;BME280;4691;47.612;7.610;2022-10-31T04:49:36;99744.00;;;11.18;100.00
9307;BME280;4691;47.612;7.610;2022-10-31T04:52:01;99743.44;;;11.13;100.00
9307;BME280;4691;47.612;7.610;2022-10-31T04:54:26;99759.88;;;11.07;100.00
9307;BME280;4691;47.612;7.610;2022-10-31T04:56:51;99766.97;;;11.08;100.00
9307;BME280;4691;47.612;7.610;2022-10-31T04:59:17;99768.47;;;11.12;100.00
9307;BME280;4691;47.612;7.610;2022-10-31T05:01:42;99754.34;;;11.10;100.00
9307;BME280;4691;47.612;7.610;2022-10-31T05:04:07;99762.38;;;11.10;100.00
9307;BME280;4691;47.612;7.610;2022-10-31T05:06:33;99770.59;;;11.07;100.00
9307;BME280;4691;47.612;7.610;2022-10-31T05:08:58;99769.34;;;11.13;100.00
9307;BME280;4691;47.612;7.610;2022-10-31T05:11:23;99760.66;;;11.09;100.00
9307;BME280;4691;47.612;7.610;2022-10-31T05:13:49;99758.72;;;11.11;100.00
9307;BME280;4691;47.612;7.610;2022-10-31T05:16:14;99766.13;;;11.07;100.00
9307;BME280;4691;47.612;7.610;2022-10-31T05:18:39;99762.19;;;11.13;100.00
9307;BME280;4691;47.612;7.610;2022-10-31T05:21:04;99757.97;;;11.09;100.00
9307;BME280;4691;47.612;7.610;2022-10-31T05:23:30;99762.69;;;11.05;100.00
9307;BME280;4691;47.612;7.610;2022-10-31T05:25:55;99760.28;;;11.01;100.00
9307;BME280;4691;47.612;7.610;2022-10-31T05:28:20;99758.75;;;10.97;100.00
9307;BME280;4691;47.612;7.610;2022-10-31T05:30:46;99764.13;;;10.97;100.00
9307;BME280;4691;47.612;7.610;2022-10-31T05:33:11;99764.59;;;11.03;100.00
9307;BME280;4691;47.612;7.610;2022-10-31T05:35:36;99751.28;;;11.02;100.00
9307;BME280;4691;47.612;7.610;2022-10-31T05:38:02;99747.63;;;10.90;100.00
9307;BME280;4691;47.612;7.610;2022-10-31T05:40:27;99760.13;;;10.89;100.00
9307;BME280;4691;47.612;7.610;2022-10-31T05:42:54;99764.53;;;10.90;100.00
9307;BME280;4691;47.612;7.610;2022-10-31T05:45:21;99771.56;;;10.92;100.00
9307;BME280;4691;47.612;7.610;2022-10-31T05:47:58;99757.06;;;10.96;100.00
9307;BME280;4691;47.612;7.610;2022-10-31T05:50:24;99753.41;;;10.97;100.00
9307;BME280;4691;47.612;7.610;2022-10-31T05:52:59;99745.78;;;10.90;100.00
9307;BME280;4691;47.612;7.610;2022-10-31T05:55:25;99741.41;;;10.89;100.00
9307;BME280;4691;47.612;7.610;2022-10-31T05:57:52;99752.56;;;10.96;100.00
9307;BME280;4691;47.612;7.610;2022-10-31T06:00:18;99743.66;;;10.96;100.00
9307;BME280;4691;47.612;7.610;2022-10-31T06:02:44;99739.28;;;10.95;100.00
9307;BME280;4691;47.612;7.610;2022-10-31T06:05:09;99742.25;;;10.90;100.00
9307;BME280;4691;47.612;7.610;2022-10-31T06:07:35;99753.16;;;10.87;100.00
9307;BME280;4691;47.612;7.610;2022-10-31T06:10:05;99749.03;;;10.96;100.00
9307;BME280;4691;47.612;7.610;2022-10-31T06:12:31;99758.75;;;10.97;100.00
9307;BME280;4691;47.612;7.610;2022-10-31T06:14:56;99755.22;;;10.96;100.00
9307;BME280;4691;47.612;7.610;2022-10-31T06:17:22;99747.69;;;11.03;100.00
9307;BME280;4691;47.612;7.610;2022-10-31T06:19:47;99733.31;;;11.04;100.00
9307;BME280;4691;47.612;7.610;2022-10-31T06:22:12;99727.75;;;11.07;100.00
9307;BME280;4691;47.612;7.610;2022-10-31T06:24:38;99720.28;;;11.12;100.00
9307;BME280;4691;47.612;7.610;2022-10-31T06:27:04;99711.97;;;11.17;100.00
9307;BME280;4691;47.612;7.610;2022-10-31T06:29:29;99706.72;;;11.15;100.00
9307;BME280;4691;47.612;7.610;2022-10-31T06:31:54;99707.06;;;11.23;100.00
9307;BME280;4691;47.612;7.610;2022-10-31T06:34:20;99699.59;;;11.28;100.00
9307;BME280;4691;47.612;7.610;2022-10-31T06:36:46;99698.41;;;11.32;100.00
9307;BME280;4691;47.612;7.610;2022-10-31T06:39:11;99688.66;;;11.31;100.00
9307;BME280;4691;47.612;7.610;2022-10-31T06:41:37;99691.34;;;11.31;100.00
9307;BME280;4691;47.612;7.610;2022-10-31T06:44:05;99700.69;;;11.39;100.00
9307;BME280;4691;47.612;7.610;2022-10-31T06:46:30;99710.97;;;11.45;100.00
9307;BME280;4691;47.612;7.610;2022-10-31T06:48:56;99718.63;;;11.51;100.00
9307;BME280;4691;47.612;7.610;2022-10-31T06:51:21;99718.91;;;11.46;100.00
9307;BME280;4691;47.612;7.610;2022-10-31T06:53:46;99726.75;;;11.49;100.00
9307;BME280;4691;47.612;7.610;2022-10-31T06:56:11;99732.88;;;11.64;100.00
9307;BME280;4691;47.612;7.610;2022-10-31T06:58:37;99734.38;;;11.68;100.00
9307;BME280;4691;47.612;7.610;2022-10-31T07:01:02;99737.81;;;11.70;100.00
9307;BME280;4691;47.612;7.610;2022-10-31T07:03:27;99745.78;;;11.85;100.00
9307;BME280;4691;47.612;7.610;2022-10-31T07:05:55;99749.03;;;11.90;100.00
9307;BME280;4691;47.612;7.610;2022-10-31T07:08:20;99767.91;;;11.88;100.00
9307;BME280;4691;47.612;7.610;2022-10-31T07:10:51;99776.72;;;12.03;100.00
9307;BME280;4691;47.612;7.610;2022-10-31T07:13:17;99762.47;;;12.15;100.00
9307;BME280;4691;47.612;7.610;2022-10-31T07:15:43;99754.75;;;12.24;100.00
9307;BME280;4691;47.612;7.610;2022-10-31T07:18:11;99756.22;;;12.28;100.00
9307;BME280;4691;47.612;7.610;2022-10-31T07:20:36;99752.47;;;12.30;100.00
9307;BME280;4691;47.612;7.610;2022-10-31T07:23:02;99756.44;;;12.25;100.00
9307;BME280;4691;47.612;7.610;2022-10-31T07:25:28;99751.22;;;12.23;100.00
9307;BME280;4691;47.612;7.610;2022-10-31T07:27:54;99765.34;;;12.25;100.00
9307;BME280;4691;47.612;7.610;2022-10-31T07:30:19;99781.25;;;12.15;100.00
9307;BME280;4691;47.612;7.610;2022-10-31T07:32:49;99779.94;;;12.34;100.00
9307;BME280;4691;47.612;7.610;2022-10-31T07:35:16;99772.66;;;12.36;100.00
9307;BME280;4691;47.612;7.610;2022-10-31T07:37:42;99763.00;;;12.59;100.00
9307;BME280;4691;47.612;7.610;2022-10-31T07:40:08;99770.16;;;12.58;100.00
9307;BME280;4691;47.612;7.610;2022-10-31T07:42:40;99756.81;;;12.82;100.00
9307;BME280;4691;47.612;7.610;2022-10-31T07:45:08;99802.69;;;12.67;100.00
9307;BME280;4691;47.612;7.610;2022-10-31T07:48:00;99792.34;;;12.73;100.00
9307;BME280;4691;47.612;7.610;2022-10-31T07:50:29;99795.28;;;12.70;100.00
9307;BME280;4691;47.612;7.610;2022-10-31T07:53:06;99802.47;;;12.70;100.00
9307;BME280;4691;47.612;7.610;2022-10-31T07:55:32;99814.06;;;12.57;100.00
9307;BME280;4691;47.612;7.610;2022-10-31T08:00:31;99798.16;;;12.80;100.00
9307;BME280;4691;47.612;7.610;2022-10-31T08:03:02;99802.53;;;12.81;100.00
9307;BME280;4691;47.612;7.610;2022-10-31T08:05:28;99796.63;;;12.89;100.00
9307;BME280;4691;47.612;7.610;2022-10-31T08:07:54;99784.16;;;13.00;100.00
9307;BME280;4691;47.612;7.610;2022-10-31T08:10:20;99783.97;;;13.15;100.00
9307;BME280;4691;47.612;7.610;2022-10-31T08:12:46;99780.19;;;13.30;100.00
9307;BME280;4691;47.612;7.610;2022-10-31T08:15:11;99788.53;;;13.38;100.00
9307;BME280;4691;47.612;7.610;2022-10-31T08:17:37;99799.88;;;13.55;100.00
9307;BME280;4691;47.612;7.610;2022-10-31T08:20:04;99810.34;;;13.46;100.00
9307;BME280;4691;47.612;7.610;2022-10-31T08:22:29;99828.50;;;13.43;100.00
9307;BME280;4691;47.612;7.610;2022-10-31T08:24:55;99831.31;;;13.41;100.00
9307;BME280;4691;47.612;7.610;2022-10-31T08:27:20;99836.59;;;13.67;100.00
9307;BME280;4691;47.612;7.610;2022-10-31T08:29:45;99834.38;;;13.85;100.00
9307;BME280;4691;47.612;7.610;2022-10-31T08:32:11;99842.06;;;13.89;100.00
9307;BME280;4691;47.612;7.610;2022-10-31T08:34:36;99838.84;;;13.84;100.00
9307;BME280;4691;47.612;7.610;2022-10-31T08:37:01;99831.78;;;13.83;100.00
9307;BME280;4691;47.612;7.610;2022-10-31T08:39:27;99832.94;;;13.68;100.00
9307;BME280;4691;47.612;7.610;2022-10-31T08:41:52;99832.75;;;13.58;100.00
9307;BME280;4691;47.612;7.610;2022-10-31T08:44:17;99823.38;;;13.88;100.00
9307;BME280;4691;47.612;7.610;2022-10-31T08:46:43;99819.84;;;13.99;100.00
9307;BME280;4691;47.612;7.610;2022-10-31T08:49:08;99810.69;;;13.90;100.00
9307;BME280;4691;47.612;7.610;2022-10-31T08:51:33;99817.66;;;13.92;100.00
9307;BME280;4691;47.612;7.610;2022-10-31T08:53:59;99816.50;;;14.19;100.00
9307;BME280;4691;47.612;7.610;2022-10-31T08:56:24;99818.16;;;13.98;100.00
9307;BME280;4691;47.612;7.610;2022-10-31T08:58:49;99818.06;;;14.10;100.00
9307;BME280;4691;47.612;7.610;2022-10-31T09:01:16;99811.97;;;14.20;100.00
9307;BME280;4691;47.612;7.610;2022-10-31T09:03:41;99803.28;;;14.63;100.00
9307;BME280;4691;47.612;7.610;2022-10-31T09:06:06;99795.06;;;14.64;100.00
9307;BME280;4691;47.612;7.610;2022-10-31T09:08:34;99792.13;;;15.01;100.00
9307;BME280;4691;47.612;7.610;2022-10-31T09:11:00;99778.50;;;15.02;100.00
9307;BME280;4691;47.612;7.610;2022-10-31T09:13:26;99755.06;;;14.71;100.00
9307;BME280;4691;47.612;7.610;2022-10-31T09:15:52;99752.91;;;15.19;100.00
9307;BME280;4691;47.612;7.610;2022-10-31T09:18:20;99746.09;;;14.93;100.00
9307;BME280;4691;47.612;7.610;2022-10-31T09:20:46;99737.00;;;15.05;100.00
9307;BME280;4691;47.612;7.610;2022-10-31T09:23:14;99738.28;;;15.33;100.00
9307;BME280;4691;47.612;7.610;2022-10-31T09:25:40;99726.25;;;15.37;100.00
9307;BME280;4691;47.612;7.610;2022-10-31T09:28:08;99729.19;;;15.02;100.00
9307;BME280;4691;47.612;7.610;2022-10-31T09:30:34;99747.63;;;15.29;100.00
9307;BME280;4691;47.612;7.610;2022-10-31T09:33:02;99727.59;;;15.43;100.00
9307;BME280;4691;47.612;7.610;2022-10-31T09:35:28;99718.69;;;15.63;100.00
9307;BME280;4691;47.612;7.610;2022-10-31T09:37:59;99676.44;;;15.32;100.00
9307;BME280;4691;47.612;7.610;2022-10-31T09:40:31;99676.94;;;15.58;100.00
9307;BME280;4691;47.612;7.610;2022-10-31T09:45:33;99678.38;;;15.62;100.00
9307;BME280;4691;47.612;7.610;2022-10-31T09:51:11;99635.56;;;15.68;100.00
9307;BME280;4691;47.612;7.610;2022-10-31T09:53:42;99631.38;;;15.76;100.00
9307;BME280;4691;47.612;7.610;2022-10-31T09:56:13;99628.97;;;15.61;100.00
9307;BME280;4691;47.612;7.610;2022-10-31T09:58:42;99642.72;;;15.70;100.00
9307;BME280;4691;47.612;7.610;2022-10-31T10:07:02;99684.00;;;15.91;100.00
9307;BME280;4691;47.612;7.610;2022-10-31T10:09:30;99667.41;;;15.96;100.00
9307;BME280;4691;47.612;7.610;2022-10-31T10:20:05;99478.16;;;17.36;100.00
9307;BME280;4691;47.612;7.610;2022-10-31T10:25:39;99131.00;;;18.69;100.00
9307;BME280;4691;47.612;7.610;2022-10-31T10:28:23;98856.44;;;18.38;100.00
9307;BME280;4691;47.612;7.610;2022-10-31T10:33:22;98861.63;;;20.54;100.00
9307;BME280;4691;47.612;7.610;2022-10-31T10:35:58;98662.63;;;20.22;100.00
9307;BME280;4691;47.612;7.610;2022-10-31T10:40:54;98935.28;;;18.26;100.00
9307;BME280;4691;47.612;7.610;2022-10-31T10:43:21;98988.97;;;18.56;100.00
9307;BME280;4691;47.612;7.610;2022-10-31T10:49:10;98878.91;;;19.68;100.00
9307;BME280;4691;47.612;7.610;2022-10-31T10:51:44;98712.22;;;20.16;100.00
9307;BME280;4691;47.612;7.610;2022-10-31T10:54:33;98647.69;;;21.22;100.00
9307;BME280;4691;47.612;7.610;2022-10-31T10:57:11;98429.69;;;22.91;100.00
9307;BME280;4691;47.612;7.610;2022-10-31T10:59:38;98404.34;;;23.51;100.00
9307;BME280;4691;47.612;7.610;2022-10-31T11:02:08;98399.38;;;24.06;100.00
9307;BME280;4691;47.612;7.610;2022-10-31T11:04:40;98394.47;;;22.83;100.00
9307;BME280;4691;47.612;7.610;2022-10-31T11:07:11;98503.84;;;20.48;100.00
9307;BME280;4691;47.612;7.610;2022-10-31T11:09:37;98613.09;;;19.68;100.00
9307;BME280;4691;47.612;7.610;2022-10-31T11:12:15;98699.00;;;19.52;100.00
9307;BME280;4691;47.612;7.610;2022-10-31T11:14:55;98751.72;;;20.04;100.00
9307;BME280;4691;47.612;7.610;2022-10-31T11:17:33;98562.72;;;22.54;100.00
9307;BME280;4691;47.612;7.610;2022-10-31T11:20:05;98381.63;;;24.67;100.00
9307;BME280;4691;47.612;7.610;2022-10-31T11:22:31;98383.03;;;25.51;100.00
9307;BME280;4691;47.612;7.610;2022-10-31T11:24:56;98396.59;;;26.01;100.00
9307;BME280;4691;47.612;7.610;2022-10-31T11:27:24;98430.72;;;25.62;100.00
9307;BME280;4691;47.612;7.610;2022-10-31T11:29:50;98429.59;;;26.06;100.00
9307;BME280;4691;47.612;7.610;2022-10-31T11:32:21;98446.84;;;25.70;100.00
9307;BME280;4691;47.612;7.610;2022-10-31T11:34:51;98435.06;;;26.25;100.00
9307;BME280;4691;47.612;7.610;2022-10-31T11:37:20;98457.63;;;25.65;100.00
9307;BME280;4691;47.612;7.610;2022-10-31T11:39:50;98427.66;;;26.62;100.00
9307;BME280;4691;47.612;7.610;2022-10-31T11:42:20;98464.34;;;26.43;100.00
9307;BME280;4691;47.612;7.610;2022-10-31T11:44:47;98511.34;;;26.65;100.00
9307;BME280;4691;47.612;7.610;2022-10-31T11:47:15;98467.69;;;27.35;100.00
9307;BME280;4691;47.612;7.610;2022-10-31T11:49:43;98566.03;;;24.64;100.00
9307;BME280;4691;47.612;7.610;2022-10-31T11:57:49;98505.97;;;24.38;100.00
9307;BME280;4691;47.612;7.610;2022-10-31T12:00:30;98553.59;;;24.68;100.00
9307;BME280;4691;47.612;7.610;2022-10-31T12:05:51;98627.38;;;27.32;100.00
9307;BME280;4691;47.612;7.610;2022-10-31T12:08:19;98594.34;;;27.39;100.00
9307;BME280;4691;47.612;7.610;2022-10-31T12:13:37;98616.09;;;26.48;100.00
9307;BME280;4691;47.612;7.610;2022-10-31T12:19:03;98639.75;;;26.86;100.00
9307;BME280;4691;47.612;7.610;2022-10-31T12:21:44;98660.59;;;25.69;100.00
9307;BME280;4691;47.612;7.610;2022-10-31T12:27:10;98597.38;;;26.27;100.00
9307;BME280;4691;47.612;7.610;2022-10-31T12:30:08;98585.75;;;28.25;100.00
9307;BME280;4691;47.612;7.610;2022-10-31T12:35:21;98616.56;;;28.74;100.00
9307;BME280;4691;47.612;7.610;2022-10-31T12:38:14;98609.78;;;25.48;100.00
9307;BME280;4691;47.612;7.610;2022-10-31T12:45:54;98529.22;;;25.05;100.00
9307;BME280;4691;47.612;7.610;2022-10-31T12:51:20;98382.78;;;23.02;100.00
9307;BME280;4691;47.612;7.610;2022-10-31T12:54:21;98393.88;;;23.21;100.00
9307;BME280;4691;47.612;7.610;2022-10-31T12:59:44;98457.19;;;23.83;100.00
9307;BME280;4691;47.612;7.610;2022-10-31T13:04:48;98448.13;;;24.02;100.00
9307;BME280;4691;47.612;7.610;2022-10-31T13:12:56;98420.72;;;23.51;100.00
9307;BME280;4691;47.612;7.610;2022-10-31T13:15:26;98419.19;;;23.68;100.00
9307;BME280;4691;47.612;7.610;2022-10-31T13:17:55;98420.50;;;23.72;100.00
9307;BME280;4691;47.612;7.610;2022-10-31T13:20:40;98392.81;;;24.59;100.00
9307;BME280;4691;47.612;7.610;2022-10-31T13:23:32;98426.81;;;24.69;100.00
9307;BME280;4691;47.612;7.610;2022-10-31T13:26:00;98421.28;;;23.66;100.00
9307;BME280;4691;47.612;7.610;2022-10-31T13:28:40;98381.69;;;22.64;100.00
9307;BME280;4691;47.612;7.610;2022-10-31T13:31:08;98295.28;;;22.24;100.00
9307;BME280;4691;47.612;7.610;2022-10-31T13:33:42;98263.19;;;22.06;100.00
9307;BME280;4691;47.612;7.610;2022-10-31T13:36:21;98367.28;;;22.08;100.00
9307;BME280;4691;47.612;7.610;2022-10-31T13:38:57;98357.56;;;22.60;100.00
9307;BME280;4691;47.612;7.610;2022-10-31T13:44:18;98358.41;;;23.34;100.00
9307;BME280;4691;47.612;7.610;2022-10-31T13:46:46;98349.66;;;23.12;100.00
9307;BME280;4691;47.612;7.610;2022-10-31T13:54:39;98419.94;;;25.42;100.00
9307;BME280;4691;47.612;7.610;2022-10-31T13:57:38;98361.25;;;23.66;100.00
9307;BME280;4691;47.612;7.610;2022-10-31T14:00:25;98367.34;;;26.14;100.00
9307;BME280;4691;47.612;7.610;2022-10-31T14:02:53;98362.19;;;26.66;100.00
9307;BME280;4691;47.612;7.610;2022-10-31T14:05:32;98399.00;;;26.10;100.00
9307;BME280;4691;47.612;7.610;2022-10-31T14:08:01;98393.53;;;25.73;100.00
9307;BME280;4691;47.612;7.610;2022-10-31T14:13:07;98397.63;;;26.19;100.00
9307;BME280;4691;47.612;7.610;2022-10-31T14:15:34;98430.41;;;24.18;100.00
9307;BME280;4691;47.612;7.610;2022-10-31T14:18:03;98383.81;;;24.83;100.00
9307;BME280;4691;47.612;7.610;2022-10-31T14:20:43;98388.22;;;23.36;100.00
9307;BME280;4691;47.612;7.610;2022-10-31T14:28:58;98358.16;;;24.84;100.00
9307;BME280;4691;47.612;7.610;2022-10-31T14:31:38;98427.19;;;24.73;100.00
9307;BME280;4691;47.612;7.610;2022-10-31T14:42:09;98488.88;;;25.57;100.00
9307;BME280;4691;47.612;7.610;2022-10-31T14:45:01;98458.53;;;25.02;100.00
9307;BME280;4691;47.612;7.610;2022-10-31T14:52:55;98402.66;;;22.83;100.00
9307;BME280;4691;47.612;7.610;2022-10-31T14:55:22;98349.38;;;21.86;100.00
9307;BME280;4691;47.612;7.610;2022-10-31T14:57:57;98322.22;;;21.16;100.00
9307;BME280;4691;47.612;7.610;2022-10-31T15:00:24;98323.50;;;20.64;100.00
9307;BME280;4691;47.612;7.610;2022-10-31T15:05:33;98265.84;;;20.19;100.00
9307;BME280;4691;47.612;7.610;2022-10-31T15:07:59;98238.53;;;19.99;100.00
9307;BME280;4691;47.612;7.610;2022-10-31T15:10:31;98227.28;;;20.02;100.00
9307;BME280;4691;47.612;7.610;2022-10-31T15:13:18;98249.31;;;19.92;100.00
9307;BME280;4691;47.612;7.610;2022-10-31T15:15:44;98274.75;;;20.34;100.00
9307;BME280;4691;47.612;7.610;2022-10-31T15:18:16;98291.06;;;19.91;100.00
9307;BME280;4691;47.612;7.610;2022-10-31T15:20:43;98288.88;;;20.01;100.00
9307;BME280;4691;47.612;7.610;2022-10-31T15:23:11;98262.91;;;19.77;100.00
9307;BME280;4691;47.612;7.610;2022-10-31T15:25:40;98236.63;;;19.78;100.00
9307;BME280;4691;47.612;7.610;2022-10-31T15:28:21;98160.75;;;19.63;100.00
9307;BME280;4691;47.612;7.610;2022-10-31T15:30:55;98158.75;;;19.50;100.00
9307;BME280;4691;47.612;7.610;2022-10-31T15:33:29;98158.13;;;19.33;100.00
9307;BME280;4691;47.612;7.610;2022-10-31T15:36:02;98158.06;;;19.27;100.00
9307;BME280;4691;47.612;7.610;2022-10-31T15:38:28;98156.66;;;19.16;100.00
9307;BME280;4691;47.612;7.610;2022-10-31T15:40:58;98172.88;;;19.09;100.00
9307;BME280;4691;47.612;7.610;2022-10-31T15:43:24;98169.41;;;19.01;100.00